»·PEaware :: ASA1438 KPDX-KBOI

ASA1438 :: KPDX-KBOI

FLIGHT INFORMATION

Flight Status: Arrived
Operator:
Alaska Airlines
More flights by this operator :: More flights under this callsign
Pilot: Kai J. (30449)
Aircraft: BOEING 737-800
(B738)
More flights by this aircraft type
Origin: KPDX Portland Intl
United States
Destination: KBOI Boise Air Terminal/Gowen
United States
More flights between these airports :: More routes between these airports
Route: +WHAMY4 IMB HOSTS PARMO3
File this flight plan on PilotEdge
Remarks:
Altitude:
(Current/Filed)
31,000ft
Speed:
(Current/Filed)
450kts
Departed: 18-Jul-20 09:17 PM
Arrived: 18-Jul-20 10:10 PM
Distance/Time
Traveled:
298nm/0:53
Distance/Time
To Go:
Arrived

Flight Plot

Page will automatically refresh every two minutes.


Map Options




Map Legend


Flown Route
Filed Route
Departure Airport
Arrival Airport
Navaid (VOR, NDB)
Fix

Horizontal Profiles

Position Reports

Time Latitude Longitude Heading Altitude Ground
Speed
18-Jul-20 20:39 45.588333 -122.596376 42 32ft 0kts
18-Jul-20 20:40 45.588333 -122.596376 42 32ft 0kts
18-Jul-20 20:41 45.588333 -122.596376 42 32ft 0kts
18-Jul-20 20:42 45.588333 -122.596376 42 32ft 0kts
18-Jul-20 20:42 45.588333 -122.596376 42 32ft 0kts
18-Jul-20 20:44 45.588333 -122.596376 42 32ft 0kts
18-Jul-20 20:45 45.588333 -122.596376 42 32ft 0kts
18-Jul-20 20:45 45.588333 -122.596376 42 32ft 0kts
18-Jul-20 20:46 45.588333 -122.596376 42 32ft 0kts
18-Jul-20 20:48 45.588333 -122.596376 42 32ft 0kts
18-Jul-20 20:48 45.588333 -122.596376 42 32ft 0kts
18-Jul-20 20:49 45.588333 -122.596376 42 32ft 0kts
18-Jul-20 20:50 45.588333 -122.596376 42 32ft 0kts
18-Jul-20 20:51 45.588333 -122.596376 42 32ft 0kts
18-Jul-20 20:52 45.588333 -122.596376 42 32ft 0kts
18-Jul-20 20:53 45.588333 -122.596376 42 32ft 0kts
18-Jul-20 20:55 45.588333 -122.596376 42 32ft 0kts
18-Jul-20 20:55 45.588333 -122.596376 42 32ft 0kts
18-Jul-20 20:56 45.588333 -122.596376 42 32ft 0kts
18-Jul-20 20:57 45.588333 -122.596376 42 32ft 0kts
18-Jul-20 20:58 45.588333 -122.596376 42 32ft 0kts
18-Jul-20 20:59 45.588333 -122.596376 42 32ft 0kts
18-Jul-20 21:00 45.588333 -122.596376 42 32ft 0kts
18-Jul-20 21:01 45.588333 -122.596376 42 32ft 0kts
18-Jul-20 21:02 45.588333 -122.596376 42 32ft 0kts
18-Jul-20 21:03 45.588314 -122.596401 42 32ft 1kts
18-Jul-20 21:04 45.587821 -122.596879 41 32ft 1kts
18-Jul-20 21:05 45.587813 -122.597278 119 32ft 0kts
18-Jul-20 21:06 45.587813 -122.597278 119 32ft 0kts
18-Jul-20 21:07 45.587813 -122.597278 119 32ft 0kts
18-Jul-20 21:08 45.587813 -122.597278 119 32ft 0kts
18-Jul-20 21:09 45.587011 -122.595207 119 32ft 13kts
18-Jul-20 21:10 45.584768 -122.591089 128 32ft 12kts
18-Jul-20 21:11 45.582978 -122.587008 119 32ft 11kts
18-Jul-20 21:12 45.581682 -122.583826 138 32ft 0kts
18-Jul-20 21:13 45.581535 -122.583684 154 32ft 0kts
18-Jul-20 21:14 45.581535 -122.583684 154 32ft 0kts
18-Jul-20 21:15 45.580812 -122.584615 296 32ft 10kts
18-Jul-20 21:16 45.595457 -122.623976 296 1388ft 163kts
18-Jul-20 21:17 45.627055 -122.696315 302 3662ft 256kts
18-Jul-20 21:18 45.663422 -122.788153 293 6964ft 282kts
18-Jul-20 21:19 45.654074 -122.896438 235 9010ft 293kts
18-Jul-20 21:20 45.573041 -122.903242 152 11515ft 359kts
18-Jul-20 21:21 45.510535 -122.791482 113 14737ft 382kts
18-Jul-20 21:22 45.467221 -122.652606 113 15001ft 383kts
18-Jul-20 21:23 45.422898 -122.510467 113 18043ft 400kts
18-Jul-20 21:24 45.376809 -122.363032 114 20714ft 419kts
18-Jul-20 21:25 45.328269 -122.208358 115 23082ft 436kts
18-Jul-20 21:26 45.278125 -122.049698 115 25208ft 452kts
18-Jul-20 21:27 45.230250 -121.881561 110 27092ft 469kts
18-Jul-20 21:28 45.184760 -121.705417 111 28835ft 483kts
18-Jul-20 21:29 45.138553 -121.526611 111 30862ft 484kts
18-Jul-20 21:30 45.093613 -121.353406 111 31088ft 489kts
18-Jul-20 21:31 45.047292 -121.175697 111 31111ft 487kts
18-Jul-20 21:32 45.000000 -120.995781 111 31123ft 487kts
18-Jul-20 21:33 44.952655 -120.817107 111 31136ft 487kts
18-Jul-20 21:34 44.905007 -120.638651 112 31136ft 485kts
18-Jul-20 21:35 44.857469 -120.461969 111 31137ft 486kts
18-Jul-20 21:36 44.809511 -120.284925 112 31137ft 484kts
18-Jul-20 21:37 44.761205 -120.107769 112 31141ft 483kts
18-Jul-20 21:38 44.712862 -119.931936 112 31146ft 483kts
18-Jul-20 21:39 44.664319 -119.756584 112 31147ft 482kts
18-Jul-20 21:40 44.612731 -119.582751 114 30726ft 483kts
18-Jul-20 21:41 44.560819 -119.409425 113 29722ft 482kts
18-Jul-20 21:42 44.509477 -119.235709 114 28720ft 484kts
18-Jul-20 21:43 44.457923 -119.061379 113 27717ft 483kts
18-Jul-20 21:44 44.407051 -118.890286 113 26717ft 474kts
18-Jul-20 21:45 44.356424 -118.721221 113 25713ft 467kts
18-Jul-20 21:46 44.306512 -118.555528 113 24712ft 460kts
18-Jul-20 21:47 44.257948 -118.395541 113 24175ft 431kts
18-Jul-20 21:48 44.210485 -118.240283 114 23784ft 424kts
18-Jul-20 21:49 44.165337 -118.093784 114 21854ft 408kts
18-Jul-20 21:50 44.120211 -117.947941 114 19829ft 401kts
18-Jul-20 21:51 44.076543 -117.809481 114 17820ft 382kts
18-Jul-20 21:52 44.034877 -117.677426 114 15883ft 366kts
18-Jul-20 21:53 43.993399 -117.545639 114 13939ft 364kts
18-Jul-20 21:54 43.952800 -117.421434 114 12040ft 344kts
18-Jul-20 21:55 43.915295 -117.303990 113 10749ft 312kts
18-Jul-20 21:56 43.882156 -117.199999 112 9991ft 281kts
18-Jul-20 21:57 43.850744 -117.101773 111 8716ft 276kts
18-Jul-20 21:58 43.819609 -117.005394 112 8008ft 275kts
18-Jul-20 21:59 43.788567 -116.909278 112 6887ft 272kts
18-Jul-20 22:00 43.758346 -116.814265 112 5589ft 268kts
18-Jul-20 22:01 43.729162 -116.720737 111 5004ft 264kts
18-Jul-20 22:02 43.700152 -116.627316 111 4996ft 264kts
18-Jul-20 22:03 43.671515 -116.533465 113 4991ft 265kts
18-Jul-20 22:04 43.641502 -116.447001 114 4989ft 230kts
18-Jul-20 22:05 43.616343 -116.373854 113 4808ft 201kts
18-Jul-20 22:06 43.596340 -116.313859 112 3864ft 154kts
18-Jul-20 22:07 43.578123 -116.260232 112 3164ft 155kts
18-Jul-20 22:08 43.563248 -116.216738 114 2860ft 60kts
18-Jul-20 22:09 43.562709 -116.211715 316 2865ft 0kts
18-Jul-20 22:10 43.563867 -116.214955 296 2862ft 18kts
18-Jul-20 22:11 43.565880 -116.220872 295 2856ft 10kts
18-Jul-20 22:12 43.567118 -116.223497 36 2853ft 3kts
18-Jul-20 22:13 43.567234 -116.222937 85 2853ft 0kts
18-Jul-20 22:14 43.567234 -116.222937 85 2853ft 0kts
18-Jul-20 22:15 43.567234 -116.222937 85 2853ft 0kts
18-Jul-20 22:16 43.567234 -116.222937 85 2853ft 0kts
18-Jul-20 22:17 43.567234 -116.222937 85 2853ft 0kts
18-Jul-20 22:18 43.567234 -116.222937 85 2853ft 0kts
18-Jul-20 22:19 43.567234 -116.222937 85 2853ft 0kts
18-Jul-20 22:20 43.567234 -116.222937 85 2853ft 0kts

Navigation Log

Ident Type
Flight plan parsing failed, navigation log unavailable